createdAt,value
2022-08-03T00:02:20.220Z,97936.29
2022-08-03T00:04:48.018Z,97932.54
2022-08-03T00:07:15.864Z,97931.71
2022-08-03T00:09:44.086Z,97930.52
2022-08-03T00:12:12.186Z,97931.36
2022-08-03T00:14:40.017Z,97927.13
2022-08-03T00:17:07.782Z,97926.39
2022-08-03T00:19:35.553Z,97930.93
2022-08-03T00:22:03.323Z,97933.06
2022-08-03T00:24:31.488Z,97935.41
2022-08-03T00:26:59.265Z,97939.06
2022-08-03T00:29:27.331Z,97941.71
2022-08-03T00:32:00.266Z,97943.48
2022-08-03T00:34:57.248Z,97940.72
2022-08-03T00:37:16.554Z,97944.23
2022-08-03T00:39:46.352Z,97941.92
2022-08-03T00:42:14.476Z,97938.44
2022-08-03T00:44:43.988Z,97937.16
2022-08-03T00:47:12.406Z,97937.12
2022-08-03T00:49:41.088Z,97936.88
2022-08-03T00:52:10.119Z,97942.94
2022-08-03T00:54:38.794Z,97942.33
2022-08-03T00:57:07.446Z,97945.08
2022-08-03T00:59:35.424Z,97944.43
2022-08-03T01:02:03.622Z,97939.02
2022-08-03T01:04:31.794Z,97940.95
2022-08-03T01:07:18.042Z,97939.48
2022-08-03T01:09:48.801Z,97935.33
2022-08-03T01:12:30.110Z,97938.48
2022-08-03T01:14:58.080Z,97939.52
2022-08-03T01:17:28.990Z,97939.61
2022-08-03T01:20:00.765Z,97942.36
2022-08-03T01:22:50.149Z,97939.98
2022-08-03T01:25:36.569Z,97941.61
2022-08-03T01:28:23.571Z,97944.36
2022-08-03T01:30:53.883Z,97943.52
2022-08-03T01:33:28.406Z,97941.42
2022-08-03T01:35:56.267Z,97943.24
2022-08-03T01:38:26.089Z,97940.68
2022-08-03T01:40:57.446Z,97945.34
2022-08-03T01:44:27.652Z,97944.15
2022-08-03T01:46:20.301Z,97947.41
2022-08-03T01:48:49.162Z,97949.83
2022-08-03T01:51:19.623Z,97944.20
2022-08-03T01:53:48.354Z,97941.10
2022-08-03T01:56:16.731Z,97943.23
2022-08-03T01:58:46.380Z,97939.77
2022-08-03T02:01:16.176Z,97939.55
2022-08-03T02:03:59.790Z,97943.81
2022-08-03T02:07:02.189Z,97939.89
2022-08-03T02:09:21.223Z,97931.27
2022-08-03T02:11:49.980Z,97932.02
2022-08-03T02:14:19.874Z,97935.08
2022-08-03T02:16:48.836Z,97938.02
2022-08-03T02:19:16.803Z,97943.32
2022-08-03T02:21:56.316Z,97946.18
2022-08-03T02:24:29.295Z,97941.72
2022-08-03T02:26:58.406Z,97938.50
2022-08-03T02:29:39.142Z,97938.31
2022-08-03T02:32:14.713Z,97945.27
2022-08-03T02:34:45.978Z,97938.02
2022-08-03T02:37:15.337Z,97935.59
2022-08-03T02:39:43.981Z,97935.74
2022-08-03T02:42:14.581Z,97934.89
2022-08-03T02:44:47.837Z,97933.44
2022-08-03T02:47:16.331Z,97935.55
2022-08-03T02:49:51.427Z,97932.21
2022-08-03T02:52:24.209Z,97933.32
2022-08-03T02:54:53.472Z,97934.09
2022-08-03T02:57:22.138Z,97937.05
2022-08-03T02:59:50.616Z,97942.74
2022-08-03T03:02:19.405Z,97942.44
2022-08-03T03:05:54.985Z,97946.83
2022-08-03T03:07:51.490Z,97951.69
2022-08-03T03:10:21.923Z,97946.73
2022-08-03T03:12:55.854Z,97947.58
2022-08-03T03:15:24.891Z,97947.17
2022-08-03T03:17:53.742Z,97944.02
2022-08-03T03:20:30.271Z,97946.11
2022-08-03T03:23:00.400Z,97948.38
2022-08-03T03:25:30.982Z,97955.65
2022-08-03T03:27:59.990Z,97957.34
2022-08-03T03:30:28.251Z,97958.45
2022-08-03T03:32:57.423Z,97962.76
2022-08-03T03:35:26.116Z,97964.78
2022-08-03T03:37:54.204Z,97963.02
2022-08-03T03:40:22.661Z,97964.09
2022-08-03T03:42:50.946Z,97968.95
2022-08-03T03:45:20.837Z,97968.71
2022-08-03T03:47:49.542Z,97963.16
2022-08-03T03:50:18.655Z,97968.13
2022-08-03T03:52:46.592Z,97970.08
2022-08-03T03:55:18.196Z,97969.19
2022-08-03T03:57:46.878Z,97972.61
2022-08-03T04:00:15.730Z,97978.98
2022-08-03T04:02:43.896Z,97981.02
2022-08-03T04:05:30.331Z,97982.13
2022-08-03T04:08:16.541Z,97981.57
2022-08-03T04:10:59.547Z,97985.33
2022-08-03T04:13:29.435Z,97990.43
2022-08-03T04:15:58.000Z,97990.88
2022-08-03T04:18:27.702Z,97994.67
2022-08-03T04:21:00.037Z,97991.79
2022-08-03T04:23:29.121Z,97993.89
2022-08-03T04:25:57.873Z,97992.71
2022-08-03T04:28:30.652Z,97995.35
2022-08-03T04:31:01.444Z,97995.73
2022-08-03T04:33:32.492Z,97999.46
2022-08-03T04:36:03.674Z,98000.84
2022-08-03T04:38:33.085Z,98003.36
2022-08-03T04:41:01.790Z,98004.48
2022-08-03T04:43:31.209Z,97999.95
2022-08-03T04:45:59.575Z,98001.57
2022-08-03T04:48:27.787Z,98000.27
2022-08-03T04:50:56.024Z,98003.38
2022-08-03T04:53:24.023Z,98006.70
2022-08-03T04:55:51.902Z,98008.21
2022-08-03T04:58:19.788Z,98006.30
2022-08-03T05:00:51.360Z,98007.94
2022-08-03T05:03:24.365Z,98009.55
2022-08-03T05:05:53.597Z,98004.69
2022-08-03T05:08:46.296Z,98001.77
2022-08-03T05:11:15.889Z,98003.19
2022-08-03T05:13:44.389Z,98002.06
2022-08-03T05:16:14.017Z,98003.08
2022-08-03T05:18:42.370Z,98000.40
2022-08-03T05:21:10.925Z,97997.77
2022-08-03T05:23:38.936Z,97995.22
2022-08-03T05:26:06.918Z,97998.03
2022-08-03T05:28:34.780Z,97999.37
2022-08-03T05:31:02.568Z,97999.89
2022-08-03T05:33:30.426Z,98002.36
2022-08-03T05:36:03.317Z,98001.70
2022-08-03T05:38:34.058Z,98003.61
2022-08-03T05:41:21.155Z,98004.96
2022-08-03T05:43:52.512Z,98008.45
2022-08-03T05:46:21.390Z,98011.63
2022-08-03T05:48:49.551Z,98013.45
2022-08-03T05:51:17.783Z,98011.76
2022-08-03T05:53:45.620Z,98015.38
2022-08-03T05:56:15.970Z,98018.52
2022-08-03T05:58:45.873Z,98019.71
2022-08-03T06:01:14.004Z,98015.91
2022-08-03T06:03:41.918Z,98015.42
2022-08-03T06:06:11.907Z,98015.08
2022-08-03T06:08:40.698Z,98017.05
2022-08-03T06:11:09.155Z,98018.02
2022-08-03T06:13:37.333Z,98020.29
2022-08-03T06:16:05.928Z,98023.38
2022-08-03T06:18:33.741Z,98021.48
2022-08-03T06:21:14.240Z,98018.73
2022-08-03T06:23:53.237Z,98020.45
2022-08-03T06:26:26.877Z,98020.20
2022-08-03T06:28:55.272Z,98018.96
2022-08-03T06:31:32.780Z,98016.66
2022-08-03T06:34:32.439Z,98017.11
2022-08-03T06:36:52.313Z,98018.30
2022-08-03T06:39:23.239Z,98020.52
2022-08-03T06:41:52.417Z,98017.13
2022-08-03T06:44:20.878Z,98013.69
2022-08-03T06:46:48.773Z,98015.01
2022-08-03T06:49:16.806Z,98015.61
2022-08-03T06:52:03.464Z,98015.28
2022-08-03T06:54:33.200Z,98007.98
2022-08-03T06:57:01.452Z,98009.09
2022-08-03T07:00:06.314Z,98007.39
2022-08-03T07:02:19.801Z,98008.96
2022-08-03T07:04:49.262Z,98007.30
2022-08-03T07:07:17.900Z,98002.91
2022-08-03T07:09:56.609Z,98000.93
2022-08-03T07:12:29.607Z,97998.27
2022-08-03T07:15:02.954Z,97995.20
2022-08-03T07:17:33.298Z,97996.98
2022-08-03T07:20:02.613Z,97998.80
2022-08-03T07:22:30.525Z,97998.06
2022-08-03T07:24:58.534Z,98000.27
2022-08-03T07:27:27.347Z,97997.09
2022-08-03T07:29:55.751Z,97993.41
2022-08-03T07:32:24.139Z,97995.07
2022-08-03T07:34:53.807Z,97992.27
2022-08-03T07:37:23.664Z,97996.30
2022-08-03T07:39:52.759Z,97994.55
2022-08-03T07:42:20.576Z,97992.91
2022-08-03T07:44:48.601Z,97994.28
2022-08-03T07:47:22.734Z,97994.52
2022-08-03T07:49:51.287Z,97990.66
2022-08-03T07:52:38.010Z,97992.17
2022-08-03T07:55:06.859Z,97995.58
2022-08-03T07:57:37.412Z,97992.34
2022-08-03T08:00:07.032Z,97993.23
2022-08-03T08:02:41.234Z,97992.50
2022-08-03T08:05:11.028Z,97993.77
2022-08-03T08:07:39.845Z,97989.96
2022-08-03T08:10:10.204Z,97990.29
2022-08-03T08:12:39.219Z,97992.73
2022-08-03T08:15:07.526Z,97995.03
2022-08-03T08:17:55.569Z,97990.56
2022-08-03T08:20:30.563Z,97989.86
2022-08-03T08:23:20.854Z,97987.10
2022-08-03T08:25:52.763Z,97988.55
2022-08-03T08:28:31.452Z,97993.43
2022-08-03T08:31:01.787Z,97997.23
2022-08-03T08:33:47.994Z,97988.73
2022-08-03T08:36:17.464Z,97984.59
2022-08-03T08:38:45.343Z,97986.98
2022-08-03T08:41:14.040Z,97985.89
2022-08-03T08:43:42.332Z,97991.42
2022-08-03T08:46:22.755Z,97988.67
2022-08-03T08:48:52.399Z,97990.63
2022-08-03T08:51:21.721Z,97992.16
2022-08-03T08:53:53.683Z,97986.04
2022-08-03T08:56:25.518Z,97982.05
2022-08-03T08:58:56.974Z,97976.43
2022-08-03T09:01:25.134Z,97978.16
2022-08-03T09:03:54.328Z,97980.52
2022-08-03T09:06:23.375Z,97985.82
2022-08-03T09:08:51.335Z,97982.95
2022-08-03T09:12:00.852Z,97979.39
2022-08-03T09:14:35.331Z,97977.48
2022-08-03T09:17:01.909Z,97972.77
2022-08-03T09:19:31.333Z,97973.41
2022-08-03T09:22:15.681Z,97975.50
2022-08-03T09:25:22.736Z,97970.42
2022-08-03T09:27:48.576Z,97969.30
2022-08-03T09:30:19.072Z,97973.21
2022-08-03T09:33:08.416Z,97966.64
2022-08-03T09:35:55.304Z,97960.15
2022-08-03T09:38:31.138Z,97965.27
2022-08-03T09:41:00.919Z,97965.02
2022-08-03T09:43:45.831Z,97969.48
2022-08-03T09:46:13.890Z,97973.09
2022-08-03T09:48:41.865Z,97971.69
2022-08-03T09:51:13.479Z,97964.73
2022-08-03T09:54:00.496Z,97956.21
2022-08-03T09:56:39.123Z,97955.30
2022-08-03T09:59:06.981Z,97948.07
2022-08-03T10:01:35.776Z,97953.59
2022-08-03T10:04:05.113Z,97954.98
2022-08-03T10:06:33.348Z,97949.92
2022-08-03T10:09:08.872Z,97942.17
2022-08-03T10:11:41.738Z,97942.77
2022-08-03T10:14:18.936Z,97949.29
2022-08-03T10:16:47.804Z,97946.14
2022-08-03T10:19:15.956Z,97937.73
2022-08-03T10:21:53.750Z,97932.62
2022-08-03T10:24:24.999Z,97930.79
2022-08-03T10:26:53.775Z,97930.94
2022-08-03T10:29:24.895Z,97929.77
2022-08-03T10:31:57.733Z,97928.12
2022-08-03T10:34:27.512Z,97931.77
2022-08-03T10:36:58.266Z,97926.98
2022-08-03T10:39:28.638Z,97923.73
2022-08-03T10:41:59.808Z,97923.52
2022-08-03T10:44:30.212Z,97922.59
2022-08-03T10:46:58.639Z,97918.80
2022-08-03T10:49:34.403Z,97919.61
2022-08-03T10:52:13.015Z,97923.05
2022-08-03T10:55:11.117Z,97919.96
2022-08-03T10:57:43.016Z,97915.59
2022-08-03T11:00:16.001Z,97913.80
2022-08-03T11:03:02.252Z,97917.42
2022-08-03T11:05:31.296Z,97915.33
2022-08-03T11:08:17.715Z,97913.69
2022-08-03T11:10:45.855Z,97914.11
2022-08-03T11:13:17.880Z,97912.44
2022-08-03T11:15:46.829Z,97904.30
2022-08-03T11:18:15.359Z,97898.91
2022-08-03T11:20:46.589Z,97891.80
2022-08-03T11:23:16.104Z,97886.19
2022-08-03T11:26:02.481Z,97885.79
2022-08-03T11:28:30.886Z,97884.04
2022-08-03T11:31:46.714Z,97883.84
2022-08-03T11:34:07.350Z,97881.25
2022-08-03T11:36:53.607Z,97878.35
2022-08-03T11:39:21.467Z,97878.66
2022-08-03T11:41:49.253Z,97876.41
2022-08-03T11:44:35.997Z,97868.92
2022-08-03T11:47:03.940Z,97868.16
2022-08-03T11:49:31.866Z,97867.52
2022-08-03T11:51:59.677Z,97866.86
2022-08-03T11:54:27.720Z,97857.61
2022-08-03T11:56:56.023Z,97852.51
2022-08-03T11:59:42.022Z,97853.13
2022-08-03T12:02:11.695Z,97858.34
2022-08-03T12:04:58.373Z,97854.36
2022-08-03T12:08:03.212Z,97849.52
2022-08-03T12:10:18.036Z,97846.84
2022-08-03T12:12:46.891Z,97841.66
2022-08-03T12:15:14.811Z,97842.11
2022-08-03T12:17:42.680Z,97838.45
2022-08-03T12:20:20.891Z,97834.71
2022-08-03T12:23:06.259Z,97839.52
2022-08-03T12:25:38.748Z,97827.93
2022-08-03T12:28:37.413Z,97827.02
2022-08-03T12:31:09.262Z,97829.11
2022-08-03T12:33:56.865Z,97828.96
2022-08-03T12:36:24.866Z,97830.83
2022-08-03T12:38:57.755Z,97831.25
2022-08-03T12:41:34.049Z,97831.06
2022-08-03T12:44:06.375Z,97832.73
2022-08-03T12:46:35.708Z,97832.35
2022-08-03T12:49:07.754Z,97831.39
2022-08-03T12:51:37.079Z,97833.64
2022-08-03T12:54:05.565Z,97832.46
2022-08-03T12:56:33.450Z,97830.65
2022-08-03T12:59:02.036Z,97830.71
2022-08-03T13:01:36.714Z,97830.27
2022-08-03T13:04:06.181Z,97829.92
2022-08-03T13:06:34.124Z,97827.97
2022-08-03T13:09:05.962Z,97823.55
2022-08-03T13:11:55.497Z,97825.84
2022-08-03T13:14:23.614Z,97819.76
2022-08-03T13:16:51.935Z,97813.27
2022-08-03T13:19:19.871Z,97813.02
2022-08-03T13:22:01.690Z,97818.83
2022-08-03T13:24:33.301Z,97818.35
2022-08-03T13:27:22.087Z,97816.10
2022-08-03T13:29:50.660Z,97809.66
2022-08-03T13:32:18.501Z,97811.34
2022-08-03T13:34:46.302Z,97810.38
2022-08-03T13:37:14.758Z,97805.90
2022-08-03T13:39:58.471Z,97802.72
2022-08-03T13:42:29.214Z,97803.91
2022-08-03T13:44:57.299Z,97797.64
2022-08-03T13:47:25.199Z,97804.66
2022-08-03T13:50:00.497Z,97803.59
2022-08-03T13:52:31.753Z,97806.12
2022-08-03T13:55:00.379Z,97808.29
2022-08-03T13:58:05.418Z,97809.48
2022-08-03T14:00:28.121Z,97811.85
2022-08-03T14:03:06.675Z,97808.05
2022-08-03T14:05:41.048Z,97809.17
2022-08-03T14:08:09.194Z,97808.55
2022-08-03T14:10:38.315Z,97807.19
2022-08-03T14:13:06.519Z,97798.98
2022-08-03T14:15:37.758Z,97801.49
2022-08-03T14:18:12.794Z,97805.57
2022-08-03T14:20:47.777Z,97799.63
2022-08-03T14:23:18.732Z,97799.33
2022-08-03T14:25:52.526Z,97794.53
2022-08-03T14:28:24.833Z,97790.52
2022-08-03T14:30:53.908Z,97789.45
2022-08-03T14:33:22.295Z,97787.16
2022-08-03T14:35:50.887Z,97784.09
2022-08-03T14:38:19.585Z,97785.45
2022-08-03T14:40:48.179Z,97785.31
2022-08-03T14:43:18.141Z,97781.33
2022-08-03T14:45:46.239Z,97776.92
2022-08-03T14:49:02.573Z,97776.30
2022-08-03T14:51:02.645Z,97775.64
2022-08-03T14:53:30.461Z,97776.41
2022-08-03T14:55:58.706Z,97775.70
2022-08-03T14:58:27.019Z,97777.02
2022-08-03T15:00:55.769Z,97778.52
2022-08-03T15:03:25.091Z,97772.45
2022-08-03T15:05:53.938Z,97774.43
2022-08-03T15:08:22.812Z,97768.42
2022-08-03T15:10:50.928Z,97767.75
2022-08-03T15:13:19.814Z,97768.46
2022-08-03T15:15:48.293Z,97768.23
2022-08-03T15:18:16.058Z,97768.79
2022-08-03T15:20:46.381Z,97765.98
2022-08-03T15:23:15.447Z,97765.98
2022-08-03T15:26:31.646Z,97768.77
2022-08-03T15:28:32.358Z,97772.02
2022-08-03T15:31:00.473Z,97772.11
2022-08-03T15:33:28.864Z,97770.13
2022-08-03T15:35:56.738Z,97767.45
2022-08-03T15:38:25.743Z,97764.69
2022-08-03T15:40:55.101Z,97766.09
2022-08-03T15:43:23.292Z,97761.33
2022-08-03T15:46:26.531Z,97761.34
2022-08-03T15:48:40.394Z,97756.38
2022-08-03T15:51:08.582Z,97753.80
2022-08-03T15:53:36.741Z,97753.00
2022-08-03T15:56:10.033Z,97752.58
2022-08-03T15:59:10.514Z,97754.13
2022-08-03T16:01:28.594Z,97759.24
2022-08-03T16:03:56.658Z,97758.27
2022-08-03T16:06:34.625Z,97756.67
2022-08-03T16:09:04.209Z,97757.53
2022-08-03T16:11:32.407Z,97755.13
2022-08-03T16:14:12.904Z,97755.59
2022-08-03T16:16:48.693Z,97755.61
2022-08-03T16:19:16.563Z,97754.48
2022-08-03T16:21:48.284Z,97758.12
2022-08-03T16:24:17.325Z,97759.88
2022-08-03T16:26:47.910Z,97759.45
2022-08-03T16:29:23.358Z,97757.85
2022-08-03T16:31:52.643Z,97761.42
2022-08-03T16:34:21.252Z,97766.41
2022-08-03T16:36:49.578Z,97766.79
2022-08-03T16:39:17.425Z,97768.01
2022-08-03T16:41:54.244Z,97768.21
2022-08-03T16:44:30.746Z,97774.71
2022-08-03T16:46:59.163Z,97772.55
2022-08-03T16:49:55.030Z,97772.61
2022-08-03T16:52:16.675Z,97781.96
2022-08-03T16:54:52.674Z,97783.38
2022-08-03T16:57:56.306Z,97785.77
2022-08-03T17:00:12.198Z,97790.45
2022-08-03T17:03:01.021Z,97791.02
2022-08-03T17:05:43.824Z,97790.77
2022-08-03T17:08:15.925Z,97789.47
2022-08-03T17:10:44.578Z,97794.23
2022-08-03T17:13:22.066Z,97794.34
2022-08-03T17:16:01.550Z,97797.26
2022-08-03T17:18:35.114Z,97797.37
2022-08-03T17:21:06.137Z,97797.40
2022-08-03T17:23:44.438Z,97798.34
2022-08-03T17:26:21.155Z,97800.27
2022-08-03T17:28:57.996Z,97797.86
2022-08-03T17:31:31.109Z,97800.50
2022-08-03T17:34:01.645Z,97800.86
2022-08-03T17:36:54.064Z,97804.02
2022-08-03T17:39:30.859Z,97804.69
2022-08-03T17:42:31.003Z,97799.08
2022-08-03T17:44:56.381Z,97800.09
2022-08-03T17:47:29.275Z,97802.59
2022-08-03T17:50:24.148Z,97806.61
2022-08-03T17:53:15.681Z,97813.16
2022-08-03T17:56:05.549Z,97806.42
2022-08-03T17:58:42.336Z,97808.69
2022-08-03T18:02:02.064Z,97812.46
2022-08-03T18:04:30.219Z,97819.10
2022-08-03T18:07:00.040Z,97826.16
2022-08-03T18:10:03.508Z,97829.48
2022-08-03T18:12:27.555Z,97830.34
2022-08-03T18:15:01.614Z,97833.69
2022-08-03T18:17:55.788Z,97839.10
2022-08-03T18:20:31.177Z,97843.36
2022-08-03T18:23:04.456Z,97848.20
2022-08-03T18:25:45.694Z,97852.02
2022-08-03T18:28:18.947Z,97850.98
2022-08-03T18:30:54.101Z,97854.24
2022-08-03T18:34:19.923Z,97858.34
2022-08-03T18:36:18.163Z,97858.59
2022-08-03T18:38:51.935Z,97859.73
2022-08-03T18:41:32.384Z,97863.63
2022-08-03T18:44:06.659Z,97864.83
2022-08-03T18:46:48.416Z,97866.20
2022-08-03T18:49:35.287Z,97865.91
2022-08-03T18:52:16.019Z,97871.73
2022-08-03T18:55:01.163Z,97872.81
2022-08-03T18:57:40.575Z,97880.06
2022-08-03T19:00:14.096Z,97880.09
2022-08-03T19:02:49.065Z,97882.17
2022-08-03T19:05:19.482Z,97885.66
2022-08-03T19:08:07.479Z,97884.55
2022-08-03T19:10:44.198Z,97886.38
2022-08-03T19:13:35.884Z,97889.36
2022-08-03T19:16:08.665Z,97893.30
2022-08-03T19:18:37.793Z,97891.83
2022-08-03T19:21:15.626Z,97890.98
2022-08-03T19:23:46.123Z,97892.33
2022-08-03T19:26:30.614Z,97894.02
2022-08-03T19:28:59.445Z,97897.12
2022-08-03T19:31:30.835Z,97901.42
2022-08-03T19:34:00.515Z,97904.21
2022-08-03T19:36:29.884Z,97903.66
2022-08-03T19:38:58.370Z,97906.70
2022-08-03T19:41:31.204Z,97906.48
2022-08-03T19:44:12.373Z,97906.45
2022-08-03T19:46:58.216Z,97907.80
2022-08-03T19:50:02.797Z,97907.27
2022-08-03T19:52:16.821Z,97908.80
2022-08-03T19:57:40.973Z,97905.52
2022-08-03T20:00:13.921Z,97905.58
2022-08-03T20:02:41.945Z,97908.24
2022-08-03T20:05:14.825Z,97909.15
2022-08-03T20:07:47.683Z,97911.86
2022-08-03T20:10:17.207Z,97914.88
2022-08-03T20:12:45.798Z,97908.56
2022-08-03T20:15:13.719Z,97909.04
2022-08-03T20:17:56.854Z,97909.56
2022-08-03T20:20:31.087Z,97910.52
2022-08-03T20:23:00.317Z,97907.40
2022-08-03T20:25:37.691Z,97905.30
2022-08-03T20:28:13.791Z,97905.78
2022-08-03T20:30:47.369Z,97909.10
2022-08-03T20:33:18.388Z,97910.34
2022-08-03T20:35:49.618Z,97910.25
2022-08-03T20:38:18.823Z,97911.14
2022-08-03T20:40:47.465Z,97914.94
2022-08-03T20:43:15.971Z,97915.16
2022-08-03T20:45:59.366Z,97916.49
2022-08-03T20:48:34.726Z,97915.03
2022-08-03T20:51:04.968Z,97910.86
2022-08-03T20:53:59.840Z,97911.59
2022-08-03T20:56:32.113Z,97911.17
2022-08-03T20:59:03.171Z,97913.79
2022-08-03T21:01:36.528Z,97917.53
2022-08-03T21:04:06.917Z,97921.13
2022-08-03T21:06:38.739Z,97929.50
2022-08-03T21:09:08.960Z,97936.58
2022-08-03T21:11:43.446Z,97938.02
2022-08-03T21:13:11.155Z,97908.17
2022-08-03T21:14:18.093Z,97937.15
2022-08-03T21:16:46.465Z,97932.51
2022-08-03T21:19:15.194Z,97930.71
2022-08-03T21:21:44.666Z,97930.96
2022-08-03T21:24:13.262Z,97933.26
2022-08-03T21:26:42.230Z,97938.36
2022-08-03T21:29:14.272Z,97936.08
2022-08-03T21:31:43.422Z,97939.35
2022-08-03T21:34:11.563Z,97942.46
2022-08-03T21:36:39.319Z,97942.73
2022-08-03T21:39:08.604Z,97944.65
2022-08-03T21:41:38.380Z,97947.40
2022-08-03T21:44:06.839Z,97945.80
2022-08-03T21:46:39.264Z,97948.33
2022-08-03T21:50:05.660Z,97949.32
2022-08-03T21:51:59.816Z,97951.13
2022-08-03T21:54:33.698Z,97955.80
2022-08-03T21:57:03.938Z,97957.17
2022-08-03T21:59:35.327Z,97959.98
2022-08-03T22:02:04.209Z,97964.26
2022-08-03T22:04:53.018Z,97961.23
2022-08-03T22:07:25.161Z,97960.52
2022-08-03T22:09:55.175Z,97962.13
2022-08-03T22:12:24.311Z,97962.02
2022-08-03T22:15:00.920Z,97960.64
2022-08-03T22:17:53.824Z,97961.71
2022-08-03T22:20:21.982Z,97965.84
2022-08-03T22:22:56.045Z,97967.52
2022-08-03T22:25:27.723Z,97964.02
2022-08-03T22:27:56.017Z,97965.27
2022-08-03T22:30:24.083Z,97965.22
2022-08-03T22:32:53.290Z,97967.02
2022-08-03T22:35:21.840Z,97964.83
2022-08-03T22:37:51.761Z,97969.26
2022-08-03T22:40:20.834Z,97971.56
2022-08-03T22:42:52.333Z,97968.78
2022-08-03T22:46:07.036Z,97968.73
2022-08-03T22:48:08.738Z,97970.29
2022-08-03T22:50:37.103Z,97971.00
2022-08-03T22:53:06.935Z,97972.76
2022-08-03T22:55:34.711Z,97974.33
2022-08-03T22:58:02.489Z,97975.45
2022-08-03T23:00:30.511Z,97974.98
2022-08-03T23:03:00.583Z,97976.21
2022-08-03T23:06:01.865Z,97978.77
2022-08-03T23:08:21.047Z,97979.85
2022-08-03T23:10:50.126Z,97978.60
2022-08-03T23:13:18.588Z,97974.23
2022-08-03T23:15:52.061Z,97976.88
2022-08-03T23:18:22.201Z,97977.75
2022-08-03T23:20:51.653Z,97978.27
2022-08-03T23:23:20.629Z,97978.02
2022-08-03T23:25:50.694Z,97978.38
2022-08-03T23:28:19.223Z,97977.39
2022-08-03T23:30:49.514Z,97978.68
2022-08-03T23:33:18.291Z,97976.52
2022-08-03T23:36:28.844Z,97982.46
2022-08-03T23:38:48.811Z,97982.34
2022-08-03T23:41:17.625Z,97982.70
2022-08-03T23:43:52.010Z,97982.02
2022-08-03T23:46:22.583Z,97981.95
2022-08-03T23:48:51.117Z,97980.64
2022-08-03T23:51:34.254Z,97980.92
2022-08-03T23:54:11.329Z,97982.39
2022-08-03T23:56:46.053Z,97979.23
2022-08-03T23:59:32.438Z,97981.55
